createdAt,value
2023-08-21T00:01:52.171Z,11.10
2023-08-21T00:04:21.743Z,9.97
2023-08-21T00:06:51.036Z,10.60
2023-08-21T00:09:21.230Z,11.67
2023-08-21T00:11:51.849Z,10.60
2023-08-21T00:14:32.990Z,10.73
2023-08-21T00:17:05.886Z,11.80
2023-08-21T00:19:44.244Z,15.00
2023-08-21T00:22:21.114Z,12.17
2023-08-21T00:24:55.932Z,11.13
2023-08-21T00:27:24.598Z,11.47
2023-08-21T00:29:55.349Z,11.13
2023-08-21T00:32:26.577Z,10.40
2023-08-21T00:34:57.563Z,10.57
2023-08-21T00:37:27.317Z,9.93
2023-08-21T00:39:58.303Z,10.37
2023-08-21T00:42:28.435Z,16.33
2023-08-21T00:45:13.083Z,10.70
2023-08-21T00:47:42.358Z,10.87
2023-08-21T00:50:27.806Z,11.07
2023-08-21T00:52:57.290Z,10.20
2023-08-21T00:55:27.138Z,11.27
2023-08-21T00:58:04.463Z,12.80
2023-08-21T01:00:40.850Z,12.80
2023-08-21T01:03:19.260Z,10.73
2023-08-21T01:05:57.118Z,11.00
2023-08-21T01:08:35.317Z,11.70
2023-08-21T01:11:11.565Z,13.27
2023-08-21T01:13:55.581Z,12.93
2023-08-21T01:16:36.649Z,10.03
2023-08-21T01:19:08.427Z,9.77
2023-08-21T01:21:36.739Z,10.97
2023-08-21T01:24:11.469Z,11.50
2023-08-21T01:26:45.308Z,10.73
2023-08-21T01:29:16.252Z,11.17
2023-08-21T01:31:54.503Z,11.10
2023-08-21T01:34:26.112Z,10.17
2023-08-21T01:37:02.512Z,13.90
2023-08-21T01:39:48.441Z,11.47
2023-08-21T01:42:19.929Z,10.27
2023-08-21T01:44:51.749Z,12.13
2023-08-21T01:47:22.313Z,15.43
2023-08-21T01:49:55.427Z,11.73
2023-08-21T01:52:24.003Z,10.60
2023-08-21T01:54:56.361Z,10.20
2023-08-21T01:57:25.796Z,12.03
2023-08-21T02:00:04.504Z,11.00
2023-08-21T02:02:54.960Z,11.77
2023-08-21T02:05:23.106Z,11.23
2023-08-21T02:07:51.940Z,11.77
2023-08-21T02:10:27.528Z,11.70
2023-08-21T02:12:56.131Z,11.03
2023-08-21T02:15:34.253Z,11.40
2023-08-21T02:18:05.216Z,12.00
2023-08-21T02:20:35.014Z,10.90
2023-08-21T02:23:03.749Z,11.33
2023-08-21T02:25:34.883Z,11.17
2023-08-21T02:28:05.398Z,12.20
2023-08-21T02:30:37.846Z,15.30
2023-08-21T02:33:09.891Z,11.30
2023-08-21T02:35:44.249Z,11.93
2023-08-21T02:38:13.074Z,11.60
2023-08-21T02:40:54.780Z,11.73
2023-08-21T02:43:26.414Z,10.87
2023-08-21T02:46:00.551Z,12.57
2023-08-21T02:48:31.253Z,11.13
2023-08-21T02:51:00.692Z,12.00
2023-08-21T02:53:31.116Z,11.83
2023-08-21T02:56:01.199Z,10.97
2023-08-21T02:58:32.165Z,12.40
2023-08-21T03:01:03.914Z,10.90
2023-08-21T03:03:37.946Z,11.63
2023-08-21T03:06:07.968Z,11.53
2023-08-21T03:08:45.173Z,10.83
2023-08-21T03:11:17.691Z,11.20
2023-08-21T03:13:47.046Z,13.57
2023-08-21T03:16:18.103Z,11.33
2023-08-21T03:19:08.130Z,12.47
2023-08-21T03:21:36.871Z,11.27
2023-08-21T03:24:10.569Z,12.10
2023-08-21T03:26:41.476Z,12.27
2023-08-21T03:29:12.972Z,11.80
2023-08-21T03:31:42.204Z,12.37
2023-08-21T03:34:12.176Z,12.50
2023-08-21T03:36:42.666Z,11.33
2023-08-21T03:39:12.565Z,12.70
2023-08-21T03:41:50.701Z,12.60
2023-08-21T03:44:31.453Z,17.73
2023-08-21T03:47:02.516Z,12.07
2023-08-21T03:49:43.544Z,11.10
2023-08-21T03:52:14.535Z,11.87
2023-08-21T03:54:46.807Z,11.90
2023-08-21T03:57:27.317Z,12.27
2023-08-21T03:59:55.362Z,10.83
2023-08-21T04:02:26.829Z,11.60
2023-08-21T04:05:05.065Z,11.97
2023-08-21T04:07:46.050Z,12.47
2023-08-21T04:10:14.935Z,11.43
2023-08-21T04:12:52.089Z,12.10
2023-08-21T04:15:28.392Z,11.93
2023-08-21T04:17:59.844Z,10.90
2023-08-21T04:20:32.803Z,11.60
2023-08-21T04:23:00.896Z,12.60
2023-08-21T04:25:37.771Z,12.77
2023-08-21T04:28:08.713Z,12.77
2023-08-21T04:30:38.268Z,12.20
2023-08-21T04:33:07.576Z,12.37
2023-08-21T04:35:42.533Z,11.93
2023-08-21T04:38:19.024Z,15.90
2023-08-21T04:40:56.490Z,13.13
2023-08-21T04:43:31.168Z,13.33
2023-08-21T04:46:08.663Z,12.43
2023-08-21T04:48:44.407Z,13.27
2023-08-21T04:51:23.371Z,15.80
2023-08-21T04:54:08.109Z,12.07
2023-08-21T04:56:49.058Z,11.53
2023-08-21T04:59:19.810Z,13.63
2023-08-21T05:01:49.160Z,12.20
2023-08-21T05:04:18.628Z,12.33
2023-08-21T05:06:50.021Z,11.70
2023-08-21T05:09:26.520Z,12.20
2023-08-21T05:11:57.400Z,11.77
2023-08-21T05:14:33.092Z,13.03
2023-08-21T05:17:15.523Z,11.30
2023-08-21T05:19:45.964Z,13.60
2023-08-21T05:22:17.400Z,17.57
2023-08-21T05:24:46.004Z,11.53
2023-08-21T05:27:23.125Z,13.23
2023-08-21T05:30:00.928Z,13.73
2023-08-21T05:32:41.489Z,12.27
2023-08-21T05:35:12.463Z,15.87
2023-08-21T05:37:49.165Z,10.87
2023-08-21T05:40:26.857Z,11.50
2023-08-21T05:43:04.591Z,12.10
2023-08-21T05:45:35.395Z,12.00
2023-08-21T05:48:06.033Z,13.53
2023-08-21T05:50:51.352Z,14.03
2023-08-21T05:53:22.797Z,12.07
2023-08-21T05:56:03.068Z,12.70
2023-08-21T05:58:34.992Z,12.60
2023-08-21T06:01:13.252Z,13.93
2023-08-21T06:03:48.932Z,15.20
2023-08-21T06:06:48.878Z,11.17
2023-08-21T06:09:22.760Z,15.23
2023-08-21T06:11:53.462Z,11.77
2023-08-21T06:14:39.736Z,13.23
2023-08-21T06:17:24.173Z,13.10
2023-08-21T06:19:57.496Z,11.50
2023-08-21T06:22:34.103Z,13.30
2023-08-21T06:25:05.260Z,12.27
2023-08-21T06:27:44.418Z,11.97
2023-08-21T06:30:29.704Z,12.03
2023-08-21T06:33:00.693Z,13.40
2023-08-21T06:35:32.849Z,12.00
2023-08-21T06:38:02.257Z,12.13
2023-08-21T06:40:33.203Z,11.30
2023-08-21T06:43:11.501Z,15.90
2023-08-21T06:45:45.201Z,15.07
2023-08-21T06:48:29.439Z,12.47
2023-08-21T06:51:00.482Z,13.20
2023-08-21T06:53:29.841Z,11.67
2023-08-21T06:56:00.321Z,12.03
2023-08-21T06:58:32.440Z,12.73
2023-08-21T07:01:09.887Z,11.73
2023-08-21T07:03:42.090Z,12.63
2023-08-21T07:06:11.264Z,12.77
2023-08-21T07:08:41.794Z,17.43
2023-08-21T07:11:14.599Z,13.87
2023-08-21T07:13:56.828Z,12.50
2023-08-21T07:16:27.473Z,12.33
2023-08-21T07:19:00.307Z,13.70
2023-08-21T07:21:34.763Z,11.67
2023-08-21T07:24:05.171Z,14.97
2023-08-21T07:26:34.735Z,12.17
2023-08-21T07:29:05.600Z,11.77
2023-08-21T07:31:37.349Z,12.87
2023-08-21T07:34:17.734Z,10.90
2023-08-21T07:36:49.459Z,11.63
2023-08-21T07:39:17.514Z,11.30
2023-08-21T07:41:49.017Z,11.97
2023-08-21T07:44:20.650Z,12.30
2023-08-21T07:46:52.692Z,10.77
2023-08-21T07:49:27.831Z,11.07
2023-08-21T07:51:58.411Z,12.57
2023-08-21T07:54:29.890Z,13.37
2023-08-21T07:56:57.953Z,11.50
2023-08-21T07:59:30.659Z,13.77
2023-08-21T08:01:59.526Z,10.60
2023-08-21T08:04:43.614Z,11.63
2023-08-21T08:07:14.900Z,11.43
2023-08-21T08:09:48.297Z,11.80
2023-08-21T08:12:22.386Z,12.77
2023-08-21T08:14:54.008Z,11.53
2023-08-21T08:17:24.479Z,11.40
2023-08-21T08:19:56.127Z,13.43
2023-08-21T08:22:27.365Z,11.20
2023-08-21T08:24:59.417Z,11.30
2023-08-21T08:27:30.241Z,11.70
2023-08-21T08:30:01.041Z,11.73
2023-08-21T08:32:30.552Z,10.77
2023-08-21T08:35:01.169Z,10.50
2023-08-21T08:37:32.067Z,11.13
2023-08-21T08:40:01.321Z,10.90
2023-08-21T08:42:30.261Z,10.27
2023-08-21T08:45:38.385Z,11.07
2023-08-21T08:48:17.643Z,10.00
2023-08-21T08:50:59.330Z,10.50
2023-08-21T08:53:30.030Z,13.53
2023-08-21T08:55:59.884Z,10.30
2023-08-21T08:58:29.247Z,10.63
2023-08-21T09:01:05.585Z,9.87
2023-08-21T09:03:35.107Z,10.07
2023-08-21T09:06:08.781Z,11.30
2023-08-21T09:08:42.706Z,10.30
2023-08-21T09:11:11.347Z,13.73
2023-08-21T09:13:46.437Z,9.30
2023-08-21T09:16:28.285Z,13.13
2023-08-21T09:19:01.160Z,9.93
2023-08-21T09:21:31.200Z,9.20
2023-08-21T09:24:03.884Z,8.93
2023-08-21T09:26:35.689Z,11.97
2023-08-21T09:29:14.012Z,9.93
2023-08-21T09:31:44.719Z,10.73
2023-08-21T09:34:15.628Z,8.57
2023-08-21T09:36:56.741Z,9.53
2023-08-21T09:39:27.833Z,9.80
2023-08-21T09:42:03.893Z,9.40
2023-08-21T09:44:53.033Z,8.90
2023-08-21T09:47:29.477Z,9.50
2023-08-21T09:50:01.836Z,9.30
2023-08-21T09:52:46.622Z,9.80
2023-08-21T09:55:16.050Z,11.60
2023-08-21T09:57:49.928Z,13.00
2023-08-21T10:00:31.937Z,9.37
2023-08-21T10:03:04.330Z,10.33
2023-08-21T10:05:36.438Z,10.83
2023-08-21T10:08:12.544Z,9.60
2023-08-21T10:10:44.025Z,9.47
2023-08-21T10:13:15.269Z,9.20
2023-08-21T10:15:53.038Z,9.20
2023-08-21T10:18:25.690Z,9.00
2023-08-21T10:21:06.433Z,9.40
2023-08-21T10:23:45.867Z,10.20
2023-08-21T10:26:14.706Z,8.73
2023-08-21T10:28:48.663Z,8.63
2023-08-21T10:31:44.644Z,11.40
2023-08-21T10:34:17.581Z,9.00
2023-08-21T10:37:25.266Z,9.67
2023-08-21T10:40:02.066Z,8.57
2023-08-21T10:42:43.474Z,9.20
2023-08-21T10:45:13.804Z,8.93
2023-08-21T10:47:48.346Z,9.30
2023-08-21T10:50:23.824Z,10.30
2023-08-21T10:52:55.009Z,11.10
2023-08-21T10:55:34.808Z,10.03
2023-08-21T10:58:04.719Z,9.30
2023-08-21T11:00:36.499Z,9.73
2023-08-21T11:03:11.908Z,8.63
2023-08-21T11:05:42.656Z,9.37
2023-08-21T11:08:14.104Z,11.00
2023-08-21T11:10:51.749Z,9.67
2023-08-21T11:13:21.139Z,9.53
2023-08-21T11:15:49.865Z,10.60
2023-08-21T11:18:21.112Z,9.00
2023-08-21T11:20:53.205Z,8.07
2023-08-21T11:23:23.720Z,7.17
2023-08-21T11:26:19.273Z,7.30
2023-08-21T11:28:55.504Z,7.27
2023-08-21T11:31:32.557Z,6.87
2023-08-21T11:34:22.153Z,6.80
2023-08-21T11:36:52.866Z,9.97
2023-08-21T11:39:23.213Z,6.13
2023-08-21T11:42:05.378Z,6.90
2023-08-21T11:44:34.884Z,6.50
2023-08-21T11:47:05.832Z,7.57
2023-08-21T11:49:43.838Z,5.63
2023-08-21T11:52:23.858Z,6.53
2023-08-21T11:54:58.162Z,5.80
2023-08-21T11:57:31.312Z,6.20
2023-08-21T12:00:03.423Z,7.00
2023-08-21T12:02:37.391Z,6.50
2023-08-21T12:05:15.346Z,6.67
2023-08-21T12:07:44.769Z,8.50
2023-08-21T12:10:16.398Z,7.00
2023-08-21T12:12:49.021Z,5.97
2023-08-21T12:15:25.636Z,9.00
2023-08-21T12:17:54.696Z,5.70
2023-08-21T12:20:25.598Z,7.23
2023-08-21T12:22:55.699Z,6.33
2023-08-21T12:25:25.251Z,9.00
2023-08-21T12:28:09.697Z,9.33
2023-08-21T12:30:43.017Z,6.73
2023-08-21T12:33:23.956Z,8.73
2023-08-21T12:35:56.937Z,6.73
2023-08-21T12:38:30.417Z,7.23
2023-08-21T12:41:01.651Z,7.93
2023-08-21T12:43:34.473Z,7.10
2023-08-21T12:46:05.735Z,6.03
2023-08-21T12:48:36.954Z,5.60
2023-08-21T12:51:06.362Z,7.30
2023-08-21T12:53:35.004Z,6.00
2023-08-21T12:56:06.056Z,6.47
2023-08-21T12:58:37.288Z,6.23
2023-08-21T13:01:08.049Z,12.93
2023-08-21T13:03:49.422Z,9.00
2023-08-21T13:06:19.619Z,5.77
2023-08-21T13:08:51.510Z,8.60
2023-08-21T13:11:22.541Z,7.70
2023-08-21T13:14:01.551Z,5.80
2023-08-21T13:16:33.719Z,7.83
2023-08-21T13:19:02.976Z,6.73
2023-08-21T13:21:34.715Z,5.73
2023-08-21T13:24:04.038Z,6.93
2023-08-21T13:26:33.742Z,6.10
2023-08-21T13:29:04.449Z,5.43
2023-08-21T13:31:36.514Z,5.27
2023-08-21T13:34:06.982Z,14.67
2023-08-21T13:36:45.574Z,5.70
2023-08-21T13:39:16.647Z,7.10
2023-08-21T13:41:50.552Z,5.83
2023-08-21T13:44:34.134Z,5.73
2023-08-21T13:47:05.559Z,4.60
2023-08-21T13:49:37.136Z,6.87
2023-08-21T13:52:08.612Z,6.93
2023-08-21T13:54:36.827Z,4.90
2023-08-21T13:57:11.882Z,4.93
2023-08-21T13:59:49.025Z,5.53
2023-08-21T14:02:26.464Z,5.03
2023-08-21T14:04:56.990Z,5.27
2023-08-21T14:07:28.248Z,5.50
2023-08-21T14:10:03.465Z,4.43
2023-08-21T14:12:34.352Z,5.27
2023-08-21T14:15:23.409Z,5.30
2023-08-21T14:18:05.712Z,5.50
2023-08-21T14:20:35.608Z,5.00
2023-08-21T14:23:07.199Z,5.50
2023-08-21T14:25:38.376Z,5.73
2023-08-21T14:28:07.378Z,6.50
2023-08-21T14:30:44.411Z,5.23
2023-08-21T14:33:18.346Z,5.13
2023-08-21T14:35:50.223Z,5.00
2023-08-21T14:38:21.404Z,4.80
2023-08-21T14:40:51.745Z,4.33
2023-08-21T14:43:22.119Z,3.97
2023-08-21T14:45:53.478Z,4.70
2023-08-21T14:48:24.785Z,4.00
2023-08-21T14:50:57.111Z,3.80
2023-08-21T14:53:37.396Z,4.40
2023-08-21T14:56:06.925Z,6.93
2023-08-21T14:58:35.904Z,5.17
2023-08-21T15:01:10.328Z,6.30
2023-08-21T15:03:39.597Z,4.60
2023-08-21T15:06:17.534Z,10.53
2023-08-21T15:08:48.095Z,6.00
2023-08-21T15:11:20.968Z,4.20
2023-08-21T15:13:52.054Z,3.57
2023-08-21T15:16:24.330Z,3.80
2023-08-21T15:18:54.469Z,4.23
2023-08-21T15:21:25.666Z,3.40
2023-08-21T15:23:56.881Z,5.10
2023-08-21T15:26:27.119Z,4.03
2023-08-21T15:29:07.353Z,3.70
2023-08-21T15:31:54.122Z,4.47
2023-08-21T15:34:25.561Z,4.47
2023-08-21T15:37:00.728Z,4.30
2023-08-21T15:39:38.507Z,4.13
2023-08-21T15:42:10.612Z,4.97
2023-08-21T15:44:47.196Z,3.40
2023-08-21T15:50:04.720Z,4.20
2023-08-21T15:52:37.017Z,4.90
2023-08-21T15:55:06.423Z,6.10
2023-08-21T15:57:37.521Z,4.77
2023-08-21T16:00:09.565Z,6.43
2023-08-21T16:02:53.979Z,4.73
2023-08-21T16:05:24.625Z,5.70
2023-08-21T16:07:57.703Z,4.73
2023-08-21T16:10:30.372Z,5.80
2023-08-21T16:12:58.594Z,4.10
2023-08-21T16:15:34.608Z,4.30
2023-08-21T16:18:06.335Z,3.87
2023-08-21T16:20:35.271Z,5.10
2023-08-21T16:23:16.725Z,5.13
2023-08-21T16:25:45.021Z,4.90
2023-08-21T16:28:14.563Z,7.43
2023-08-21T16:30:43.320Z,5.17
2023-08-21T16:33:31.677Z,4.30
2023-08-21T16:36:01.135Z,6.00
2023-08-21T16:38:29.265Z,5.20
2023-08-21T16:40:58.211Z,5.20
2023-08-21T16:43:36.561Z,5.10
2023-08-21T16:46:09.337Z,5.37
2023-08-21T16:48:47.032Z,5.00
2023-08-21T16:51:16.154Z,6.60
2023-08-21T16:53:50.248Z,4.37
2023-08-21T16:56:23.930Z,4.93
2023-08-21T16:58:53.710Z,6.10
2023-08-21T17:01:23.928Z,4.60
2023-08-21T17:03:57.274Z,4.70
2023-08-21T17:06:40.242Z,5.90
2023-08-21T17:09:13.015Z,5.40
2023-08-21T17:11:43.172Z,5.93
2023-08-21T17:14:14.708Z,4.60
2023-08-21T17:16:45.034Z,8.20
2023-08-21T17:19:21.418Z,3.87
2023-08-21T17:21:52.571Z,5.43
2023-08-21T17:24:25.513Z,5.87
2023-08-21T17:27:00.579Z,6.63
2023-08-21T17:29:33.418Z,5.83
2023-08-21T17:32:25.294Z,7.40
2023-08-21T17:35:03.133Z,5.60
2023-08-21T17:37:39.591Z,4.97
2023-08-21T17:40:23.605Z,5.00
2023-08-21T17:42:57.491Z,4.87
2023-08-21T17:45:34.120Z,4.60
2023-08-21T17:48:10.121Z,4.73
2023-08-21T17:50:49.419Z,7.10
2023-08-21T17:53:23.318Z,7.17
2023-08-21T17:56:06.605Z,4.67
2023-08-21T17:58:45.108Z,8.43
2023-08-21T18:01:38.891Z,4.23
2023-08-21T18:04:16.143Z,4.87
2023-08-21T18:06:55.948Z,3.97
2023-08-21T18:09:31.517Z,9.67
2023-08-21T18:12:07.070Z,3.70
2023-08-21T18:14:40.629Z,4.00
2023-08-21T18:17:22.897Z,5.70
2023-08-21T18:19:59.484Z,4.30
2023-08-21T18:22:38.782Z,4.43
2023-08-21T18:25:18.790Z,4.57
2023-08-21T18:30:47.664Z,5.20
2023-08-21T18:33:30.471Z,4.80
2023-08-21T18:36:04.461Z,5.33
2023-08-21T18:38:58.860Z,5.80
2023-08-21T18:41:45.950Z,6.40
2023-08-21T18:44:19.530Z,8.37
2023-08-21T18:46:59.128Z,5.37
2023-08-21T18:49:34.680Z,4.10
2023-08-21T18:52:20.401Z,5.23
2023-08-21T18:55:20.223Z,5.20
2023-08-21T18:58:04.040Z,6.43
2023-08-21T19:00:51.664Z,4.83
2023-08-21T19:03:27.942Z,4.60
2023-08-21T19:06:03.739Z,6.00
2023-08-21T19:08:46.646Z,5.93
2023-08-21T19:11:38.262Z,5.27
2023-08-21T19:14:23.793Z,5.77
2023-08-21T19:17:00.758Z,8.20
2023-08-21T19:19:46.865Z,8.90
2023-08-21T19:22:32.200Z,6.03
2023-08-21T19:25:11.351Z,5.67
2023-08-21T19:27:56.528Z,5.93
2023-08-21T19:30:46.528Z,6.10
2023-08-21T19:33:30.430Z,6.10
2023-08-21T19:36:08.177Z,6.03
2023-08-21T19:38:53.890Z,5.30
2023-08-21T19:41:27.989Z,6.03
2023-08-21T19:44:12.615Z,6.70
2023-08-21T19:46:57.628Z,7.33
2023-08-21T19:49:29.612Z,7.67
2023-08-21T19:52:28.726Z,8.37
2023-08-21T19:55:16.525Z,6.10
2023-08-21T19:57:49.808Z,6.53
2023-08-21T20:00:38.603Z,6.90
2023-08-21T20:03:13.056Z,7.70
2023-08-21T20:05:52.078Z,6.50
2023-08-21T20:08:26.085Z,4.97
2023-08-21T20:11:07.105Z,6.30
2023-08-21T20:13:47.873Z,5.93
2023-08-21T20:16:47.721Z,7.73
2023-08-21T20:19:20.718Z,10.90
2023-08-21T20:21:57.279Z,7.43
2023-08-21T20:24:32.688Z,6.93
2023-08-21T20:27:12.331Z,7.30
2023-08-21T20:29:45.096Z,10.33
2023-08-21T20:32:19.233Z,11.00
2023-08-21T20:34:58.000Z,7.40
2023-08-21T20:37:41.235Z,6.83
2023-08-21T20:40:15.405Z,12.10
2023-08-21T20:42:54.614Z,6.13
2023-08-21T20:45:26.720Z,7.63
2023-08-21T20:48:07.446Z,7.97
2023-08-21T20:50:43.239Z,6.87
2023-08-21T20:53:17.850Z,7.00
2023-08-21T20:56:01.337Z,7.87
2023-08-21T20:58:42.737Z,7.57
2023-08-21T21:01:20.940Z,6.87
2023-08-21T21:04:03.592Z,10.90
2023-08-21T21:06:42.296Z,8.77
2023-08-21T21:09:10.529Z,6.83
2023-08-21T21:11:41.995Z,8.53
2023-08-21T21:14:19.192Z,7.97
2023-08-21T21:16:53.461Z,9.40
2023-08-21T21:19:30.784Z,7.23
2023-08-21T21:22:10.515Z,7.37
2023-08-21T21:24:45.868Z,10.13
2023-08-21T21:27:24.078Z,12.53
2023-08-21T21:29:53.955Z,8.20
2023-08-21T21:32:24.221Z,11.57
2023-08-21T21:34:56.675Z,8.63
2023-08-21T21:37:39.643Z,14.93
2023-08-21T21:40:18.710Z,8.80
2023-08-21T21:42:49.539Z,10.50
2023-08-21T21:45:31.396Z,9.10
2023-08-21T21:48:01.996Z,12.40
2023-08-21T21:50:33.954Z,13.40
2023-08-21T21:53:02.221Z,11.37
2023-08-21T21:55:31.867Z,9.10
2023-08-21T21:58:00.782Z,9.90
2023-08-21T22:00:32.635Z,15.07
2023-08-21T22:03:01.952Z,8.63
2023-08-21T22:05:43.075Z,10.47
2023-08-21T22:08:19.577Z,9.10
2023-08-21T22:10:58.046Z,13.50
2023-08-21T22:13:26.271Z,8.20
2023-08-21T22:16:01.296Z,9.17
2023-08-21T22:18:32.566Z,9.37
2023-08-21T22:21:09.718Z,12.13
2023-08-21T22:23:44.330Z,13.70
2023-08-21T22:26:13.915Z,7.90
2023-08-21T22:28:51.498Z,9.47
2023-08-21T22:31:36.134Z,13.10
2023-08-21T22:34:10.291Z,7.60
2023-08-21T22:36:43.386Z,8.40
2023-08-21T22:39:21.718Z,9.37
2023-08-21T22:41:53.381Z,10.43
2023-08-21T22:44:24.009Z,13.20
2023-08-21T22:46:53.608Z,8.87
2023-08-21T22:49:23.838Z,7.67
2023-08-21T22:52:02.994Z,7.93
2023-08-21T22:54:34.053Z,8.10
2023-08-21T22:57:04.906Z,8.53
2023-08-21T22:59:43.767Z,7.03
2023-08-21T23:02:20.499Z,7.90
2023-08-21T23:04:48.744Z,11.23
2023-08-21T23:07:24.383Z,7.60
2023-08-21T23:09:53.001Z,7.27
2023-08-21T23:12:25.762Z,7.20
2023-08-21T23:14:57.281Z,6.93
2023-08-21T23:17:27.080Z,6.97
2023-08-21T23:19:58.005Z,7.13
2023-08-21T23:22:28.958Z,8.47
2023-08-21T23:24:57.869Z,7.87
2023-08-21T23:27:28.175Z,7.10
2023-08-21T23:29:58.033Z,8.27
2023-08-21T23:32:28.439Z,7.83
2023-08-21T23:34:57.128Z,9.23
2023-08-21T23:37:40.514Z,7.03
2023-08-21T23:40:18.784Z,7.40
2023-08-21T23:42:49.773Z,7.43
2023-08-21T23:45:27.394Z,7.17
2023-08-21T23:48:05.381Z,8.23
2023-08-21T23:50:42.949Z,9.60
2023-08-21T23:53:25.195Z,11.40
2023-08-21T23:55:56.631Z,8.03
2023-08-21T23:58:28.245Z,7.40
